sensor_id;sensor_type;location;lat;lon;timestamp;P1;durP1;ratioP1;P2;durP2;ratioP2
74124;SDS011;62475;52.192;5.396;2022-07-29T00:02:01;4.85;;;1.20;;
74124;SDS011;62475;52.192;5.396;2022-07-29T00:04:26;3.63;;;1.13;;
74124;SDS011;62475;52.192;5.396;2022-07-29T00:06:52;3.92;;;1.25;;
74124;SDS011;62475;52.192;5.396;2022-07-29T00:09:17;4.07;;;1.30;;
74124;SDS011;62475;52.192;5.396;2022-07-29T00:11:42;2.50;;;1.27;;
74124;SDS011;62475;52.192;5.396;2022-07-29T00:14:10;2.33;;;1.08;;
74124;SDS011;62475;52.192;5.396;2022-07-29T00:16:36;2.85;;;1.13;;
74124;SDS011;62475;52.192;5.396;2022-07-29T00:19:01;4.40;;;1.20;;
74124;SDS011;62475;52.192;5.396;2022-07-29T00:21:26;3.35;;;1.33;;
74124;SDS011;62475;52.192;5.396;2022-07-29T00:23:52;1.83;;;1.13;;
74124;SDS011;62475;52.192;5.396;2022-07-29T00:26:17;3.70;;;1.20;;
74124;SDS011;62475;52.192;5.396;2022-07-29T00:28:42;2.55;;;2.00;;
74124;SDS011;62475;52.192;5.396;2022-07-29T00:31:08;2.20;;;1.10;;
74124;SDS011;62475;52.192;5.396;2022-07-29T00:33:33;11.35;;;3.40;;
74124;SDS011;62475;52.192;5.396;2022-07-29T00:35:58;3.92;;;1.50;;
74124;SDS011;62475;52.192;5.396;2022-07-29T00:38:24;2.88;;;1.20;;
74124;SDS011;62475;52.192;5.396;2022-07-29T00:40:49;3.80;;;1.20;;
74124;SDS011;62475;52.192;5.396;2022-07-29T00:43:15;2.22;;;1.00;;
74124;SDS011;62475;52.192;5.396;2022-07-29T00:45:42;6.68;;;1.70;;
74124;SDS011;62475;52.192;5.396;2022-07-29T00:48:08;3.53;;;1.20;;
74124;SDS011;62475;52.192;5.396;2022-07-29T00:50:34;1.55;;;1.08;;
74124;SDS011;62475;52.192;5.396;2022-07-29T00:52:59;5.30;;;1.17;;
74124;SDS011;62475;52.192;5.396;2022-07-29T00:55:25;3.92;;;1.63;;
74124;SDS011;62475;52.192;5.396;2022-07-29T00:57:51;3.83;;;1.27;;
74124;SDS011;62475;52.192;5.396;2022-07-29T01:00:21;1.67;;;1.20;;
74124;SDS011;62475;52.192;5.396;2022-07-29T01:02:49;4.32;;;1.20;;
74124;SDS011;62475;52.192;5.396;2022-07-29T01:05:19;2.30;;;1.33;;
74124;SDS011;62475;52.192;5.396;2022-07-29T01:07:46;4.07;;;1.50;;
74124;SDS011;62475;52.192;5.396;2022-07-29T01:10:13;4.78;;;1.30;;
74124;SDS011;62475;52.192;5.396;2022-07-29T01:12:40;2.60;;;1.67;;
74124;SDS011;62475;52.192;5.396;2022-07-29T01:15:08;6.22;;;2.85;;
74124;SDS011;62475;52.192;5.396;2022-07-29T01:26:07;3.13;;;1.27;;
74124;SDS011;62475;52.192;5.396;2022-07-29T01:31:48;3.25;;;1.40;;
74124;SDS011;62475;52.192;5.396;2022-07-29T01:34:41;2.80;;;1.30;;
74124;SDS011;62475;52.192;5.396;2022-07-29T01:39:45;4.47;;;1.90;;
74124;SDS011;62475;52.192;5.396;2022-07-29T01:47:40;2.00;;;1.45;;
74124;SDS011;62475;52.192;5.396;2022-07-29T01:50:10;4.18;;;1.50;;
74124;SDS011;62475;52.192;5.396;2022-07-29T01:52:42;3.50;;;1.70;;
74124;SDS011;62475;52.192;5.396;2022-07-29T01:55:13;4.35;;;2.05;;
74124;SDS011;62475;52.192;5.396;2022-07-29T01:57:40;5.00;;;1.73;;
74124;SDS011;62475;52.192;5.396;2022-07-29T02:00:09;3.00;;;1.70;;
74124;SDS011;62475;52.192;5.396;2022-07-29T02:02:35;3.17;;;1.60;;
74124;SDS011;62475;52.192;5.396;2022-07-29T02:05:03;5.55;;;2.15;;
74124;SDS011;62475;52.192;5.396;2022-07-29T02:07:30;3.97;;;1.73;;
74124;SDS011;62475;52.192;5.396;2022-07-29T02:09:58;4.28;;;1.60;;
74124;SDS011;62475;52.192;5.396;2022-07-29T02:12:25;5.78;;;2.25;;
74124;SDS011;62475;52.192;5.396;2022-07-29T02:17:23;3.30;;;1.80;;
74124;SDS011;62475;52.192;5.396;2022-07-29T02:19:51;5.50;;;1.75;;
74124;SDS011;62475;52.192;5.396;2022-07-29T02:22:22;5.30;;;1.80;;
74124;SDS011;62475;52.192;5.396;2022-07-29T02:24:49;5.78;;;1.92;;
74124;SDS011;62475;52.192;5.396;2022-07-29T02:27:16;5.57;;;2.00;;
74124;SDS011;62475;52.192;5.396;2022-07-29T02:29:44;3.65;;;2.00;;
74124;SDS011;62475;52.192;5.396;2022-07-29T02:32:11;7.72;;;2.03;;
74124;SDS011;62475;52.192;5.396;2022-07-29T02:34:39;5.78;;;2.30;;
74124;SDS011;62475;52.192;5.396;2022-07-29T02:37:07;5.00;;;2.33;;
74124;SDS011;62475;52.192;5.396;2022-07-29T02:39:34;2.00;;;1.67;;
74124;SDS011;62475;52.192;5.396;2022-07-29T02:42:03;2.97;;;1.95;;
74124;SDS011;62475;52.192;5.396;2022-07-29T02:44:32;2.83;;;2.20;;
74124;SDS011;62475;52.192;5.396;2022-07-29T02:49:45;4.55;;;2.10;;
74124;SDS011;62475;52.192;5.396;2022-07-29T02:56:00;5.93;;;2.20;;
74124;SDS011;62475;52.192;5.396;2022-07-29T03:01:04;3.63;;;2.22;;
74124;SDS011;62475;52.192;5.396;2022-07-29T03:03:36;5.65;;;2.50;;
74124;SDS011;62475;52.192;5.396;2022-07-29T03:06:03;3.05;;;2.22;;
74124;SDS011;62475;52.192;5.396;2022-07-29T03:08:29;4.72;;;2.30;;
74124;SDS011;62475;52.192;5.396;2022-07-29T03:10:57;3.38;;;2.03;;
74124;SDS011;62475;52.192;5.396;2022-07-29T03:13:23;4.22;;;2.30;;
74124;SDS011;62475;52.192;5.396;2022-07-29T03:15:50;2.83;;;1.90;;
74124;SDS011;62475;52.192;5.396;2022-07-29T03:18:17;3.80;;;1.88;;
74124;SDS011;62475;52.192;5.396;2022-07-29T03:20:43;5.25;;;2.38;;
74124;SDS011;62475;52.192;5.396;2022-07-29T03:23:08;5.47;;;1.98;;
74124;SDS011;62475;52.192;5.396;2022-07-29T03:25:34;5.40;;;2.28;;
74124;SDS011;62475;52.192;5.396;2022-07-29T03:27:59;3.35;;;2.00;;
74124;SDS011;62475;52.192;5.396;2022-07-29T03:30:25;3.35;;;2.00;;
74124;SDS011;62475;52.192;5.396;2022-07-29T03:32:51;4.28;;;1.90;;
74124;SDS011;62475;52.192;5.396;2022-07-29T03:35:17;3.25;;;1.73;;
74124;SDS011;62475;52.192;5.396;2022-07-29T03:37:43;3.95;;;2.05;;
74124;SDS011;62475;52.192;5.396;2022-07-29T03:40:09;3.72;;;1.95;;
74124;SDS011;62475;52.192;5.396;2022-07-29T03:42:39;4.28;;;2.40;;
74124;SDS011;62475;52.192;5.396;2022-07-29T03:47:35;5.68;;;2.13;;
74124;SDS011;62475;52.192;5.396;2022-07-29T03:50:06;5.90;;;2.20;;
74124;SDS011;62475;52.192;5.396;2022-07-29T03:52:33;6.55;;;2.50;;
74124;SDS011;62475;52.192;5.396;2022-07-29T03:54:59;6.60;;;2.70;;
74124;SDS011;62475;52.192;5.396;2022-07-29T03:57:25;4.88;;;2.22;;
74124;SDS011;62475;52.192;5.396;2022-07-29T03:59:53;5.45;;;2.30;;
74124;SDS011;62475;52.192;5.396;2022-07-29T04:02:19;4.85;;;2.20;;
74124;SDS011;62475;52.192;5.396;2022-07-29T04:04:45;4.00;;;2.40;;
74124;SDS011;62475;52.192;5.396;2022-07-29T04:07:11;4.15;;;1.90;;
74124;SDS011;62475;52.192;5.396;2022-07-29T04:09:41;4.05;;;2.17;;
74124;SDS011;62475;52.192;5.396;2022-07-29T04:12:07;5.63;;;2.22;;
74124;SDS011;62475;52.192;5.396;2022-07-29T04:14:32;4.90;;;1.75;;
74124;SDS011;62475;52.192;5.396;2022-07-29T04:17:00;6.00;;;2.30;;
74124;SDS011;62475;52.192;5.396;2022-07-29T04:19:26;4.28;;;2.40;;
74124;SDS011;62475;52.192;5.396;2022-07-29T04:21:51;3.30;;;2.13;;
74124;SDS011;62475;52.192;5.396;2022-07-29T04:24:17;4.72;;;2.03;;
74124;SDS011;62475;52.192;5.396;2022-07-29T04:26:42;3.90;;;1.92;;
74124;SDS011;62475;52.192;5.396;2022-07-29T04:29:08;3.10;;;2.00;;
74124;SDS011;62475;52.192;5.396;2022-07-29T04:31:33;3.15;;;2.15;;
74124;SDS011;62475;52.192;5.396;2022-07-29T04:33:58;3.35;;;2.35;;
74124;SDS011;62475;52.192;5.396;2022-07-29T04:36:24;4.88;;;1.92;;
74124;SDS011;62475;52.192;5.396;2022-07-29T04:38:49;2.97;;;2.20;;
74124;SDS011;62475;52.192;5.396;2022-07-29T04:41:14;3.65;;;2.13;;
74124;SDS011;62475;52.192;5.396;2022-07-29T04:43:40;3.72;;;2.42;;
74124;SDS011;62475;52.192;5.396;2022-07-29T04:46:05;3.67;;;2.58;;
74124;SDS011;62475;52.192;5.396;2022-07-29T04:48:31;3.17;;;2.13;;
74124;SDS011;62475;52.192;5.396;2022-07-29T04:50:57;5.32;;;2.50;;
74124;SDS011;62475;52.192;5.396;2022-07-29T04:53:22;6.72;;;2.22;;
74124;SDS011;62475;52.192;5.396;2022-07-29T04:55:48;5.55;;;1.75;;
74124;SDS011;62475;52.192;5.396;2022-07-29T04:58:13;2.85;;;1.98;;
74124;SDS011;62475;52.192;5.396;2022-07-29T05:00:39;5.35;;;1.98;;
74124;SDS011;62475;52.192;5.396;2022-07-29T05:03:05;4.32;;;2.53;;
74124;SDS011;62475;52.192;5.396;2022-07-29T05:05:30;3.58;;;1.88;;
74124;SDS011;62475;52.192;5.396;2022-07-29T05:07:56;3.97;;;1.83;;
74124;SDS011;62475;52.192;5.396;2022-07-29T05:10:24;5.93;;;2.47;;
74124;SDS011;62475;52.192;5.396;2022-07-29T05:12:49;4.82;;;2.15;;
74124;SDS011;62475;52.192;5.396;2022-07-29T05:15:15;3.67;;;1.80;;
74124;SDS011;62475;52.192;5.396;2022-07-29T05:17:41;3.65;;;1.95;;
74124;SDS011;62475;52.192;5.396;2022-07-29T05:20:07;3.47;;;2.38;;
74124;SDS011;62475;52.192;5.396;2022-07-29T05:22:32;2.30;;;1.70;;
74124;SDS011;62475;52.192;5.396;2022-07-29T05:24:58;6.28;;;1.92;;
74124;SDS011;62475;52.192;5.396;2022-07-29T05:27:23;5.45;;;1.95;;
74124;SDS011;62475;52.192;5.396;2022-07-29T05:29:48;3.00;;;1.70;;
74124;SDS011;62475;52.192;5.396;2022-07-29T05:32:14;2.63;;;1.98;;
74124;SDS011;62475;52.192;5.396;2022-07-29T05:34:39;5.47;;;2.15;;
74124;SDS011;62475;52.192;5.396;2022-07-29T05:37:05;2.75;;;1.67;;
74124;SDS011;62475;52.192;5.396;2022-07-29T05:39:30;5.32;;;1.90;;
74124;SDS011;62475;52.192;5.396;2022-07-29T05:41:56;2.75;;;2.13;;
74124;SDS011;62475;52.192;5.396;2022-07-29T05:44:21;4.85;;;1.90;;
74124;SDS011;62475;52.192;5.396;2022-07-29T05:46:47;4.30;;;2.60;;
74124;SDS011;62475;52.192;5.396;2022-07-29T05:49:12;3.85;;;2.55;;
74124;SDS011;62475;52.192;5.396;2022-07-29T05:51:37;7.95;;;2.22;;
74124;SDS011;62475;52.192;5.396;2022-07-29T05:54:03;5.35;;;2.22;;
74124;SDS011;62475;52.192;5.396;2022-07-29T05:56:28;4.05;;;2.42;;
74124;SDS011;62475;52.192;5.396;2022-07-29T05:58:54;3.78;;;2.13;;
74124;SDS011;62475;52.192;5.396;2022-07-29T06:01:19;2.38;;;1.60;;
74124;SDS011;62475;52.192;5.396;2022-07-29T06:03:45;4.85;;;1.80;;
74124;SDS011;62475;52.192;5.396;2022-07-29T06:06:10;3.75;;;1.92;;
74124;SDS011;62475;52.192;5.396;2022-07-29T06:08:36;3.58;;;1.73;;
74124;SDS011;62475;52.192;5.396;2022-07-29T06:11:02;4.85;;;1.55;;
74124;SDS011;62475;52.192;5.396;2022-07-29T06:13:28;3.85;;;2.20;;
74124;SDS011;62475;52.192;5.396;2022-07-29T06:15:54;3.83;;;1.90;;
74124;SDS011;62475;52.192;5.396;2022-07-29T06:18:19;6.40;;;1.92;;
74124;SDS011;62475;52.192;5.396;2022-07-29T06:20:46;5.43;;;1.92;;
74124;SDS011;62475;52.192;5.396;2022-07-29T06:23:11;2.65;;;1.88;;
74124;SDS011;62475;52.192;5.396;2022-07-29T06:25:36;3.88;;;2.00;;
74124;SDS011;62475;52.192;5.396;2022-07-29T06:28:02;5.20;;;2.15;;
74124;SDS011;62475;52.192;5.396;2022-07-29T06:30:28;7.82;;;2.40;;
74124;SDS011;62475;52.192;5.396;2022-07-29T06:32:54;3.85;;;2.03;;
74124;SDS011;62475;52.192;5.396;2022-07-29T06:35:20;3.50;;;1.98;;
74124;SDS011;62475;52.192;5.396;2022-07-29T06:37:46;2.78;;;2.10;;
74124;SDS011;62475;52.192;5.396;2022-07-29T06:40:12;4.32;;;2.33;;
74124;SDS011;62475;52.192;5.396;2022-07-29T06:42:55;5.18;;;2.17;;
74124;SDS011;62475;52.192;5.396;2022-07-29T06:45:21;3.35;;;2.22;;
74124;SDS011;62475;52.192;5.396;2022-07-29T06:47:46;3.90;;;2.13;;
74124;SDS011;62475;52.192;5.396;2022-07-29T06:50:12;4.63;;;2.35;;
74124;SDS011;62475;52.192;5.396;2022-07-29T06:52:38;4.47;;;2.42;;
74124;SDS011;62475;52.192;5.396;2022-07-29T06:55:03;3.47;;;2.45;;
74124;SDS011;62475;52.192;5.396;2022-07-29T06:57:29;5.20;;;2.05;;
74124;SDS011;62475;52.192;5.396;2022-07-29T06:59:58;5.47;;;2.00;;
74124;SDS011;62475;52.192;5.396;2022-07-29T07:02:23;5.13;;;2.35;;
74124;SDS011;62475;52.192;5.396;2022-07-29T07:04:49;5.20;;;2.00;;
74124;SDS011;62475;52.192;5.396;2022-07-29T07:07:14;2.55;;;2.00;;
74124;SDS011;62475;52.192;5.396;2022-07-29T07:09:39;3.30;;;2.28;;
74124;SDS011;62475;52.192;5.396;2022-07-29T07:12:05;3.92;;;2.25;;
74124;SDS011;62475;52.192;5.396;2022-07-29T07:14:30;4.35;;;2.90;;
74124;SDS011;62475;52.192;5.396;2022-07-29T07:16:56;4.50;;;2.17;;
74124;SDS011;62475;52.192;5.396;2022-07-29T07:19:21;5.35;;;2.35;;
74124;SDS011;62475;52.192;5.396;2022-07-29T07:21:46;2.97;;;2.20;;
74124;SDS011;62475;52.192;5.396;2022-07-29T07:24:12;3.70;;;2.10;;
74124;SDS011;62475;52.192;5.396;2022-07-29T07:26:40;4.50;;;2.22;;
74124;SDS011;62475;52.192;5.396;2022-07-29T07:29:06;4.22;;;2.20;;
74124;SDS011;62475;52.192;5.396;2022-07-29T07:31:31;4.55;;;2.10;;
74124;SDS011;62475;52.192;5.396;2022-07-29T07:33:57;2.58;;;2.05;;
74124;SDS011;62475;52.192;5.396;2022-07-29T07:36:22;2.92;;;1.70;;
74124;SDS011;62475;52.192;5.396;2022-07-29T07:38:48;4.50;;;1.88;;
74124;SDS011;62475;52.192;5.396;2022-07-29T07:41:13;2.75;;;1.70;;
74124;SDS011;62475;52.192;5.396;2022-07-29T07:43:39;2.53;;;1.80;;
74124;SDS011;62475;52.192;5.396;2022-07-29T07:46:04;3.90;;;2.65;;
74124;SDS011;62475;52.192;5.396;2022-07-29T07:48:29;5.93;;;2.35;;
74124;SDS011;62475;52.192;5.396;2022-07-29T07:50:55;4.93;;;2.00;;
74124;SDS011;62475;52.192;5.396;2022-07-29T07:53:21;7.20;;;2.42;;
74124;SDS011;62475;52.192;5.396;2022-07-29T07:55:46;5.03;;;2.05;;
74124;SDS011;62475;52.192;5.396;2022-07-29T07:58:12;8.10;;;2.60;;
74124;SDS011;62475;52.192;5.396;2022-07-29T08:00:37;5.47;;;2.17;;
74124;SDS011;62475;52.192;5.396;2022-07-29T08:03:02;4.85;;;2.33;;
74124;SDS011;62475;52.192;5.396;2022-07-29T08:05:28;5.85;;;1.98;;
74124;SDS011;62475;52.192;5.396;2022-07-29T08:07:54;4.60;;;2.47;;
74124;SDS011;62475;52.192;5.396;2022-07-29T08:10:19;5.90;;;2.60;;
74124;SDS011;62475;52.192;5.396;2022-07-29T08:13:04;7.47;;;2.70;;
74124;SDS011;62475;52.192;5.396;2022-07-29T08:15:30;4.05;;;2.17;;
74124;SDS011;62475;52.192;5.396;2022-07-29T08:17:55;3.53;;;2.22;;
74124;SDS011;62475;52.192;5.396;2022-07-29T08:20:20;5.47;;;2.58;;
74124;SDS011;62475;52.192;5.396;2022-07-29T08:22:46;5.80;;;2.30;;
74124;SDS011;62475;52.192;5.396;2022-07-29T08:25:11;5.23;;;2.63;;
74124;SDS011;62475;52.192;5.396;2022-07-29T08:27:36;7.45;;;2.65;;
74124;SDS011;62475;52.192;5.396;2022-07-29T08:30:02;7.28;;;2.72;;
74124;SDS011;62475;52.192;5.396;2022-07-29T08:32:28;5.03;;;2.70;;
74124;SDS011;62475;52.192;5.396;2022-07-29T08:34:54;5.88;;;2.85;;
74124;SDS011;62475;52.192;5.396;2022-07-29T08:37:19;3.53;;;2.70;;
74124;SDS011;62475;52.192;5.396;2022-07-29T08:39:44;6.32;;;2.65;;
74124;SDS011;62475;52.192;5.396;2022-07-29T08:42:10;3.90;;;2.42;;
74124;SDS011;62475;52.192;5.396;2022-07-29T08:44:36;4.95;;;2.60;;
74124;SDS011;62475;52.192;5.396;2022-07-29T08:47:01;5.53;;;2.40;;
74124;SDS011;62475;52.192;5.396;2022-07-29T08:49:27;4.68;;;2.28;;
74124;SDS011;62475;52.192;5.396;2022-07-29T08:51:52;4.55;;;2.80;;
74124;SDS011;62475;52.192;5.396;2022-07-29T08:54:18;5.82;;;2.83;;
74124;SDS011;62475;52.192;5.396;2022-07-29T08:56:50;5.13;;;2.85;;
74124;SDS011;62475;52.192;5.396;2022-07-29T08:59:16;3.47;;;2.25;;
74124;SDS011;62475;52.192;5.396;2022-07-29T09:01:46;6.43;;;2.25;;
74124;SDS011;62475;52.192;5.396;2022-07-29T09:04:12;2.90;;;1.83;;
74124;SDS011;62475;52.192;5.396;2022-07-29T09:06:42;4.30;;;2.38;;
74124;SDS011;62475;52.192;5.396;2022-07-29T09:09:09;3.10;;;2.33;;
74124;SDS011;62475;52.192;5.396;2022-07-29T09:11:34;6.35;;;2.50;;
74124;SDS011;62475;52.192;5.396;2022-07-29T09:14:00;5.47;;;2.53;;
74124;SDS011;62475;52.192;5.396;2022-07-29T09:16:25;6.03;;;2.60;;
74124;SDS011;62475;52.192;5.396;2022-07-29T09:18:50;5.78;;;2.70;;
74124;SDS011;62475;52.192;5.396;2022-07-29T09:21:16;6.05;;;2.25;;
74124;SDS011;62475;52.192;5.396;2022-07-29T09:24:08;3.90;;;2.25;;
74124;SDS011;62475;52.192;5.396;2022-07-29T09:26:34;5.97;;;2.42;;
74124;SDS011;62475;52.192;5.396;2022-07-29T09:29:09;5.75;;;2.72;;
74124;SDS011;62475;52.192;5.396;2022-07-29T09:31:47;6.60;;;2.70;;
74124;SDS011;62475;52.192;5.396;2022-07-29T09:34:15;6.40;;;2.83;;
74124;SDS011;62475;52.192;5.396;2022-07-29T09:36:43;5.22;;;2.85;;
74124;SDS011;62475;52.192;5.396;2022-07-29T09:39:10;6.18;;;2.85;;
74124;SDS011;62475;52.192;5.396;2022-07-29T09:41:51;6.30;;;3.05;;
74124;SDS011;62475;52.192;5.396;2022-07-29T09:44:18;6.28;;;2.97;;
74124;SDS011;62475;52.192;5.396;2022-07-29T09:49:22;5.32;;;3.22;;
74124;SDS011;62475;52.192;5.396;2022-07-29T09:51:58;4.90;;;2.70;;
74124;SDS011;62475;52.192;5.396;2022-07-29T09:54:36;5.22;;;2.90;;
74124;SDS011;62475;52.192;5.396;2022-07-29T09:57:03;7.55;;;3.13;;
74124;SDS011;62475;52.192;5.396;2022-07-29T09:59:34;5.50;;;2.75;;
74124;SDS011;62475;52.192;5.396;2022-07-29T10:01:59;6.40;;;3.22;;
74124;SDS011;62475;52.192;5.396;2022-07-29T10:04:59;6.35;;;3.28;;
74124;SDS011;62475;52.192;5.396;2022-07-29T10:07:17;6.43;;;3.25;;
74124;SDS011;62475;52.192;5.396;2022-07-29T10:09:49;5.95;;;2.97;;
74124;SDS011;62475;52.192;5.396;2022-07-29T10:12:24;4.97;;;3.05;;
74124;SDS011;62475;52.192;5.396;2022-07-29T10:14:50;6.63;;;3.30;;
74124;SDS011;62475;52.192;5.396;2022-07-29T10:17:16;4.82;;;3.05;;
74124;SDS011;62475;52.192;5.396;2022-07-29T10:19:42;8.35;;;3.20;;
74124;SDS011;62475;52.192;5.396;2022-07-29T10:22:08;5.95;;;2.90;;
74124;SDS011;62475;52.192;5.396;2022-07-29T10:24:34;7.65;;;3.78;;
74124;SDS011;62475;52.192;5.396;2022-07-29T10:27:02;5.10;;;3.45;;
74124;SDS011;62475;52.192;5.396;2022-07-29T10:29:29;8.82;;;3.92;;
74124;SDS011;62475;52.192;5.396;2022-07-29T10:40:09;7.95;;;3.83;;
74124;SDS011;62475;52.192;5.396;2022-07-29T10:43:02;6.40;;;3.05;;
74124;SDS011;62475;52.192;5.396;2022-07-29T10:45:54;7.28;;;3.15;;
74124;SDS011;62475;52.192;5.396;2022-07-29T10:48:22;6.65;;;3.55;;
74124;SDS011;62475;52.192;5.396;2022-07-29T10:53:45;5.38;;;3.85;;
74124;SDS011;62475;52.192;5.396;2022-07-29T10:56:25;5.05;;;3.05;;
74124;SDS011;62475;52.192;5.396;2022-07-29T11:01:48;5.18;;;3.60;;
74124;SDS011;62475;52.192;5.396;2022-07-29T11:07:08;5.90;;;3.25;;
74124;SDS011;62475;52.192;5.396;2022-07-29T11:09:33;5.82;;;3.42;;
74124;SDS011;62475;52.192;5.396;2022-07-29T11:11:59;6.75;;;3.20;;
74124;SDS011;62475;52.192;5.396;2022-07-29T11:17:26;6.40;;;3.03;;
74124;SDS011;62475;52.192;5.396;2022-07-29T11:19:51;7.10;;;2.97;;
74124;SDS011;62475;52.192;5.396;2022-07-29T11:22:37;5.60;;;2.55;;
74124;SDS011;62475;52.192;5.396;2022-07-29T11:25:15;3.35;;;2.15;;
74124;SDS011;62475;52.192;5.396;2022-07-29T11:27:42;8.60;;;2.33;;
74124;SDS011;62475;52.192;5.396;2022-07-29T11:30:09;4.30;;;2.50;;
74124;SDS011;62475;52.192;5.396;2022-07-29T11:32:38;6.55;;;2.70;;
74124;SDS011;62475;52.192;5.396;2022-07-29T11:38:23;5.18;;;2.60;;
74124;SDS011;62475;52.192;5.396;2022-07-29T11:43:46;6.28;;;2.80;;
74124;SDS011;62475;52.192;5.396;2022-07-29T11:46:41;7.70;;;2.78;;
74124;SDS011;62475;52.192;5.396;2022-07-29T11:49:06;4.63;;;2.35;;
74124;SDS011;62475;52.192;5.396;2022-07-29T11:51:33;5.13;;;2.00;;
74124;SDS011;62475;52.192;5.396;2022-07-29T11:53:59;10.02;;;3.38;;
74124;SDS011;62475;52.192;5.396;2022-07-29T11:56:25;6.03;;;3.13;;
74124;SDS011;62475;52.192;5.396;2022-07-29T11:59:06;5.13;;;2.70;;
74124;SDS011;62475;52.192;5.396;2022-07-29T12:01:34;4.90;;;2.45;;
74124;SDS011;62475;52.192;5.396;2022-07-29T12:04:03;4.68;;;2.65;;
74124;SDS011;62475;52.192;5.396;2022-07-29T12:06:29;4.22;;;2.53;;
74124;SDS011;62475;52.192;5.396;2022-07-29T12:08:54;7.78;;;2.38;;
74124;SDS011;62475;52.192;5.396;2022-07-29T12:11:20;4.65;;;2.70;;
74124;SDS011;62475;52.192;5.396;2022-07-29T12:13:45;6.07;;;2.78;;
74124;SDS011;62475;52.192;5.396;2022-07-29T12:16:11;4.72;;;2.60;;
74124;SDS011;62475;52.192;5.396;2022-07-29T12:18:36;5.10;;;2.67;;
74124;SDS011;62475;52.192;5.396;2022-07-29T12:21:02;6.15;;;2.97;;
74124;SDS011;62475;52.192;5.396;2022-07-29T12:23:28;6.95;;;2.97;;
74124;SDS011;62475;52.192;5.396;2022-07-29T12:25:54;4.82;;;2.53;;
74124;SDS011;62475;52.192;5.396;2022-07-29T12:28:20;4.40;;;3.20;;
74124;SDS011;62475;52.192;5.396;2022-07-29T12:30:47;11.23;;;3.50;;
74124;SDS011;62475;52.192;5.396;2022-07-29T12:33:15;5.65;;;3.45;;
74124;SDS011;62475;52.192;5.396;2022-07-29T12:35:44;5.00;;;2.67;;
74124;SDS011;62475;52.192;5.396;2022-07-29T12:38:12;7.93;;;3.42;;
74124;SDS011;62475;52.192;5.396;2022-07-29T12:40:38;8.52;;;2.70;;
74124;SDS011;62475;52.192;5.396;2022-07-29T12:43:14;5.97;;;3.10;;
74124;SDS011;62475;52.192;5.396;2022-07-29T12:45:43;10.38;;;3.42;;
74124;SDS011;62475;52.192;5.396;2022-07-29T12:48:10;7.72;;;4.13;;
74124;SDS011;62475;52.192;5.396;2022-07-29T12:50:36;13.00;;;5.13;;
74124;SDS011;62475;52.192;5.396;2022-07-29T12:53:16;5.38;;;3.05;;
74124;SDS011;62475;52.192;5.396;2022-07-29T12:55:42;7.50;;;3.28;;
74124;SDS011;62475;52.192;5.396;2022-07-29T12:58:25;6.25;;;3.72;;
74124;SDS011;62475;52.192;5.396;2022-07-29T13:01:12;6.15;;;2.80;;
74124;SDS011;62475;52.192;5.396;2022-07-29T13:03:43;8.25;;;3.22;;
74124;SDS011;62475;52.192;5.396;2022-07-29T13:11:28;5.22;;;2.70;;
74124;SDS011;62475;52.192;5.396;2022-07-29T13:13:57;6.78;;;3.10;;
74124;SDS011;62475;52.192;5.396;2022-07-29T13:16:22;5.68;;;3.33;;
74124;SDS011;62475;52.192;5.396;2022-07-29T13:18:47;5.70;;;3.37;;
74124;SDS011;62475;52.192;5.396;2022-07-29T13:21:14;12.43;;;3.55;;
74124;SDS011;62475;52.192;5.396;2022-07-29T13:23:40;8.70;;;3.35;;
74124;SDS011;62475;52.192;5.396;2022-07-29T13:26:06;6.03;;;3.70;;
74124;SDS011;62475;52.192;5.396;2022-07-29T13:28:33;5.50;;;3.22;;
74124;SDS011;62475;52.192;5.396;2022-07-29T13:30:59;4.85;;;2.80;;
74124;SDS011;62475;52.192;5.396;2022-07-29T13:33:24;5.30;;;2.92;;
74124;SDS011;62475;52.192;5.396;2022-07-29T13:35:50;8.30;;;3.35;;
74124;SDS011;62475;52.192;5.396;2022-07-29T13:38:15;5.53;;;2.90;;
74124;SDS011;62475;52.192;5.396;2022-07-29T13:40:41;7.50;;;2.97;;
74124;SDS011;62475;52.192;5.396;2022-07-29T13:43:08;4.32;;;2.97;;
74124;SDS011;62475;52.192;5.396;2022-07-29T13:45:34;4.78;;;2.72;;
74124;SDS011;62475;52.192;5.396;2022-07-29T13:47:59;5.88;;;3.05;;
74124;SDS011;62475;52.192;5.396;2022-07-29T13:50:25;5.38;;;3.33;;
74124;SDS011;62475;52.192;5.396;2022-07-29T13:52:50;5.47;;;2.75;;
74124;SDS011;62475;52.192;5.396;2022-07-29T13:55:16;5.30;;;3.17;;
74124;SDS011;62475;52.192;5.396;2022-07-29T13:57:41;6.05;;;3.50;;
74124;SDS011;62475;52.192;5.396;2022-07-29T14:00:06;3.83;;;2.53;;
74124;SDS011;62475;52.192;5.396;2022-07-29T14:02:32;3.60;;;2.90;;
74124;SDS011;62475;52.192;5.396;2022-07-29T14:04:58;4.68;;;3.00;;
74124;SDS011;62475;52.192;5.396;2022-07-29T14:07:23;8.10;;;3.55;;
74124;SDS011;62475;52.192;5.396;2022-07-29T14:09:49;9.30;;;3.67;;
74124;SDS011;62475;52.192;5.396;2022-07-29T14:12:15;10.15;;;4.03;;
74124;SDS011;62475;52.192;5.396;2022-07-29T14:14:40;9.23;;;3.95;;
74124;SDS011;62475;52.192;5.396;2022-07-29T14:17:09;11.60;;;4.68;;
74124;SDS011;62475;52.192;5.396;2022-07-29T14:19:34;8.32;;;4.25;;
74124;SDS011;62475;52.192;5.396;2022-07-29T14:22:04;7.03;;;3.83;;
74124;SDS011;62475;52.192;5.396;2022-07-29T14:24:31;8.70;;;3.88;;
74124;SDS011;62475;52.192;5.396;2022-07-29T14:26:56;8.25;;;4.10;;
74124;SDS011;62475;52.192;5.396;2022-07-29T14:29:22;9.25;;;4.43;;
74124;SDS011;62475;52.192;5.396;2022-07-29T14:31:47;7.05;;;3.70;;
74124;SDS011;62475;52.192;5.396;2022-07-29T14:34:13;9.40;;;3.97;;
74124;SDS011;62475;52.192;5.396;2022-07-29T14:36:40;7.32;;;3.53;;
74124;SDS011;62475;52.192;5.396;2022-07-29T14:39:07;5.65;;;3.90;;
74124;SDS011;62475;52.192;5.396;2022-07-29T14:41:32;7.20;;;4.00;;
74124;SDS011;62475;52.192;5.396;2022-07-29T14:43:57;8.70;;;3.30;;
74124;SDS011;62475;52.192;5.396;2022-07-29T14:46:25;10.05;;;3.92;;
74124;SDS011;62475;52.192;5.396;2022-07-29T14:48:53;10.55;;;3.78;;
74124;SDS011;62475;52.192;5.396;2022-07-29T14:51:19;5.80;;;2.75;;
74124;SDS011;62475;52.192;5.396;2022-07-29T14:53:45;5.20;;;2.60;;
74124;SDS011;62475;52.192;5.396;2022-07-29T14:56:10;5.35;;;2.65;;
74124;SDS011;62475;52.192;5.396;2022-07-29T14:58:35;7.60;;;2.63;;
74124;SDS011;62475;52.192;5.396;2022-07-29T15:01:01;5.95;;;2.17;;
74124;SDS011;62475;52.192;5.396;2022-07-29T15:03:26;3.95;;;2.00;;
74124;SDS011;62475;52.192;5.396;2022-07-29T15:05:54;7.20;;;1.92;;
74124;SDS011;62475;52.192;5.396;2022-07-29T15:08:20;8.63;;;2.25;;
74124;SDS011;62475;52.192;5.396;2022-07-29T15:10:45;5.30;;;2.05;;
74124;SDS011;62475;52.192;5.396;2022-07-29T15:13:11;5.97;;;2.15;;
74124;SDS011;62475;52.192;5.396;2022-07-29T15:15:36;5.38;;;1.95;;
74124;SDS011;62475;52.192;5.396;2022-07-29T15:18:01;2.65;;;1.70;;
74124;SDS011;62475;52.192;5.396;2022-07-29T15:20:27;3.20;;;1.80;;
74124;SDS011;62475;52.192;5.396;2022-07-29T15:22:52;3.33;;;1.77;;
74124;SDS011;62475;52.192;5.396;2022-07-29T15:25:20;4.45;;;2.08;;
74124;SDS011;62475;52.192;5.396;2022-07-29T15:27:45;3.80;;;1.90;;
74124;SDS011;62475;52.192;5.396;2022-07-29T15:30:11;3.58;;;1.50;;
74124;SDS011;62475;52.192;5.396;2022-07-29T15:32:36;5.63;;;1.90;;
74124;SDS011;62475;52.192;5.396;2022-07-29T15:35:05;4.35;;;1.52;;
74124;SDS011;62475;52.192;5.396;2022-07-29T15:37:30;3.55;;;1.33;;
74124;SDS011;62475;52.192;5.396;2022-07-29T15:39:58;3.22;;;1.38;;
74124;SDS011;62475;52.192;5.396;2022-07-29T15:42:24;3.25;;;1.33;;
74124;SDS011;62475;52.192;5.396;2022-07-29T15:44:49;3.50;;;1.20;;
74124;SDS011;62475;52.192;5.396;2022-07-29T15:47:17;3.25;;;1.40;;
74124;SDS011;62475;52.192;5.396;2022-07-29T15:49:42;4.53;;;2.33;;
74124;SDS011;62475;52.192;5.396;2022-07-29T15:52:09;2.47;;;1.33;;
74124;SDS011;62475;52.192;5.396;2022-07-29T15:54:35;2.47;;;1.15;;
74124;SDS011;62475;52.192;5.396;2022-07-29T15:57:03;3.78;;;1.30;;